sensor_id;sensor_type;location;lat;lon;timestamp;P1;durP1;ratioP1;P2;durP2;ratioP2
44228;SDS011;29904;51.058;5.378;2023-06-14T00:01:50;6.45;;;4.28;;
44228;SDS011;29904;51.058;5.378;2023-06-14T00:04:16;5.78;;;4.25;;
44228;SDS011;29904;51.058;5.378;2023-06-14T00:06:45;6.00;;;4.50;;
44228;SDS011;29904;51.058;5.378;2023-06-14T00:09:15;5.57;;;4.25;;
44228;SDS011;29904;51.058;5.378;2023-06-14T00:11:42;5.97;;;3.90;;
44228;SDS011;29904;51.058;5.378;2023-06-14T00:14:09;5.57;;;4.10;;
44228;SDS011;29904;51.058;5.378;2023-06-14T00:16:37;5.65;;;4.20;;
44228;SDS011;29904;51.058;5.378;2023-06-14T00:19:04;7.30;;;4.40;;
44228;SDS011;29904;51.058;5.378;2023-06-14T00:21:30;7.10;;;4.57;;
44228;SDS011;29904;51.058;5.378;2023-06-14T00:24:00;6.55;;;4.10;;
44228;SDS011;29904;51.058;5.378;2023-06-14T00:26:29;7.68;;;4.75;;
44228;SDS011;29904;51.058;5.378;2023-06-14T00:28:55;6.13;;;4.25;;
44228;SDS011;29904;51.058;5.378;2023-06-14T00:31:22;7.55;;;4.30;;
44228;SDS011;29904;51.058;5.378;2023-06-14T00:33:48;6.20;;;4.30;;
44228;SDS011;29904;51.058;5.378;2023-06-14T00:36:13;6.15;;;4.38;;
44228;SDS011;29904;51.058;5.378;2023-06-14T00:38:39;6.20;;;4.60;;
44228;SDS011;29904;51.058;5.378;2023-06-14T00:41:05;5.77;;;4.37;;
44228;SDS011;29904;51.058;5.378;2023-06-14T00:43:31;7.10;;;4.70;;
44228;SDS011;29904;51.058;5.378;2023-06-14T00:45:57;6.97;;;4.63;;
44228;SDS011;29904;51.058;5.378;2023-06-14T00:48:23;7.00;;;4.63;;
44228;SDS011;29904;51.058;5.378;2023-06-14T00:50:49;6.93;;;4.23;;
44228;SDS011;29904;51.058;5.378;2023-06-14T00:53:17;6.65;;;4.32;;
44228;SDS011;29904;51.058;5.378;2023-06-14T00:55:47;5.10;;;4.20;;
44228;SDS011;29904;51.058;5.378;2023-06-14T00:58:14;6.97;;;4.47;;
44228;SDS011;29904;51.058;5.378;2023-06-14T01:00:41;6.47;;;4.50;;
44228;SDS011;29904;51.058;5.378;2023-06-14T01:03:09;6.53;;;4.57;;
44228;SDS011;29904;51.058;5.378;2023-06-14T01:05:37;8.57;;;5.00;;
44228;SDS011;29904;51.058;5.378;2023-06-14T01:16:03;7.65;;;5.15;;
44228;SDS011;29904;51.058;5.378;2023-06-14T01:18:30;8.48;;;5.57;;
44228;SDS011;29904;51.058;5.378;2023-06-14T01:20:58;10.38;;;5.50;;
44228;SDS011;29904;51.058;5.378;2023-06-14T01:23:24;7.13;;;5.18;;
44228;SDS011;29904;51.058;5.378;2023-06-14T01:25:57;6.78;;;4.93;;
44228;SDS011;29904;51.058;5.378;2023-06-14T01:28:24;8.65;;;5.28;;
44228;SDS011;29904;51.058;5.378;2023-06-14T01:30:52;9.88;;;5.10;;
44228;SDS011;29904;51.058;5.378;2023-06-14T01:33:22;8.32;;;5.20;;
44228;SDS011;29904;51.058;5.378;2023-06-14T01:35:51;7.00;;;5.20;;
44228;SDS011;29904;51.058;5.378;2023-06-14T01:38:18;7.97;;;5.95;;
44228;SDS011;29904;51.058;5.378;2023-06-14T01:40:47;8.05;;;5.82;;
44228;SDS011;29904;51.058;5.378;2023-06-14T01:43:13;7.68;;;5.38;;
44228;SDS011;29904;51.058;5.378;2023-06-14T01:45:44;8.45;;;5.25;;
44228;SDS011;29904;51.058;5.378;2023-06-14T01:48:12;7.53;;;5.30;;
44228;SDS011;29904;51.058;5.378;2023-06-14T01:50:40;8.07;;;5.53;;
44228;SDS011;29904;51.058;5.378;2023-06-14T01:53:09;7.53;;;5.57;;
44228;SDS011;29904;51.058;5.378;2023-06-14T01:55:36;7.80;;;5.30;;
44228;SDS011;29904;51.058;5.378;2023-06-14T01:58:09;8.38;;;5.80;;
44228;SDS011;29904;51.058;5.378;2023-06-14T02:00:35;8.48;;;5.45;;
44228;SDS011;29904;51.058;5.378;2023-06-14T02:03:01;8.77;;;5.60;;
44228;SDS011;29904;51.058;5.378;2023-06-14T02:05:29;9.23;;;6.10;;
44228;SDS011;29904;51.058;5.378;2023-06-14T02:07:55;8.75;;;5.78;;
44228;SDS011;29904;51.058;5.378;2023-06-14T02:10:21;8.53;;;5.57;;
44228;SDS011;29904;51.058;5.378;2023-06-14T02:12:48;8.38;;;5.20;;
44228;SDS011;29904;51.058;5.378;2023-06-14T02:15:15;8.57;;;6.03;;
44228;SDS011;29904;51.058;5.378;2023-06-14T02:17:45;8.48;;;5.78;;
44228;SDS011;29904;51.058;5.378;2023-06-14T02:20:14;7.70;;;5.60;;
44228;SDS011;29904;51.058;5.378;2023-06-14T02:22:40;8.77;;;5.35;;
44228;SDS011;29904;51.058;5.378;2023-06-14T02:25:06;9.85;;;5.30;;
44228;SDS011;29904;51.058;5.378;2023-06-14T02:27:33;7.60;;;5.20;;
44228;SDS011;29904;51.058;5.378;2023-06-14T02:30:00;7.68;;;5.15;;
44228;SDS011;29904;51.058;5.378;2023-06-14T02:32:27;7.50;;;5.60;;
44228;SDS011;29904;51.058;5.378;2023-06-14T02:34:53;8.27;;;5.40;;
44228;SDS011;29904;51.058;5.378;2023-06-14T02:37:20;7.97;;;5.30;;
44228;SDS011;29904;51.058;5.378;2023-06-14T02:39:46;6.90;;;5.40;;
44228;SDS011;29904;51.058;5.378;2023-06-14T02:42:12;8.00;;;6.10;;
44228;SDS011;29904;51.058;5.378;2023-06-14T02:44:38;8.88;;;5.90;;
44228;SDS011;29904;51.058;5.378;2023-06-14T02:47:06;8.60;;;5.80;;
44228;SDS011;29904;51.058;5.378;2023-06-14T02:49:32;8.00;;;6.00;;
44228;SDS011;29904;51.058;5.378;2023-06-14T02:51:58;7.78;;;5.78;;
44228;SDS011;29904;51.058;5.378;2023-06-14T02:54:24;6.75;;;5.25;;
44228;SDS011;29904;51.058;5.378;2023-06-14T02:56:50;9.00;;;5.53;;
44228;SDS011;29904;51.058;5.378;2023-06-14T02:59:16;6.93;;;5.00;;
44228;SDS011;29904;51.058;5.378;2023-06-14T03:01:44;7.40;;;5.45;;
44228;SDS011;29904;51.058;5.378;2023-06-14T03:04:10;10.00;;;6.05;;
44228;SDS011;29904;51.058;5.378;2023-06-14T03:06:36;8.40;;;6.00;;
44228;SDS011;29904;51.058;5.378;2023-06-14T03:09:04;6.57;;;5.47;;
44228;SDS011;29904;51.058;5.378;2023-06-14T03:11:31;9.17;;;6.10;;
44228;SDS011;29904;51.058;5.378;2023-06-14T03:13:56;7.20;;;5.93;;
44228;SDS011;29904;51.058;5.378;2023-06-14T03:16:23;8.20;;;5.93;;
44228;SDS011;29904;51.058;5.378;2023-06-14T03:18:49;7.13;;;5.70;;
44228;SDS011;29904;51.058;5.378;2023-06-14T03:21:16;7.93;;;5.90;;
44228;SDS011;29904;51.058;5.378;2023-06-14T03:23:45;8.35;;;6.03;;
44228;SDS011;29904;51.058;5.378;2023-06-14T03:26:11;9.97;;;6.10;;
44228;SDS011;29904;51.058;5.378;2023-06-14T03:28:42;8.70;;;6.07;;
44228;SDS011;29904;51.058;5.378;2023-06-14T03:31:11;8.13;;;6.10;;
44228;SDS011;29904;51.058;5.378;2023-06-14T03:33:38;8.80;;;6.25;;
44228;SDS011;29904;51.058;5.378;2023-06-14T03:36:04;9.38;;;6.25;;
44228;SDS011;29904;51.058;5.378;2023-06-14T03:38:31;8.43;;;6.18;;
44228;SDS011;29904;51.058;5.378;2023-06-14T03:40:57;10.02;;;6.40;;
44228;SDS011;29904;51.058;5.378;2023-06-14T03:43:23;10.32;;;6.88;;
44228;SDS011;29904;51.058;5.378;2023-06-14T03:45:49;9.32;;;6.38;;
44228;SDS011;29904;51.058;5.378;2023-06-14T03:48:16;8.85;;;6.30;;
44228;SDS011;29904;51.058;5.378;2023-06-14T03:50:42;10.70;;;6.65;;
44228;SDS011;29904;51.058;5.378;2023-06-14T03:53:08;8.85;;;6.28;;
44228;SDS011;29904;51.058;5.378;2023-06-14T03:55:36;8.52;;;6.70;;
44228;SDS011;29904;51.058;5.378;2023-06-14T03:58:02;9.38;;;6.30;;
44228;SDS011;29904;51.058;5.378;2023-06-14T04:00:28;9.07;;;6.33;;
44228;SDS011;29904;51.058;5.378;2023-06-14T04:02:57;9.85;;;6.43;;
44228;SDS011;29904;51.058;5.378;2023-06-14T04:05:22;7.82;;;6.30;;
44228;SDS011;29904;51.058;5.378;2023-06-14T04:07:51;9.18;;;6.80;;
44228;SDS011;29904;51.058;5.378;2023-06-14T04:10:22;9.07;;;6.30;;
44228;SDS011;29904;51.058;5.378;2023-06-14T04:12:48;8.93;;;6.20;;
44228;SDS011;29904;51.058;5.378;2023-06-14T04:15:14;8.93;;;6.35;;
44228;SDS011;29904;51.058;5.378;2023-06-14T04:17:40;8.25;;;6.22;;
44228;SDS011;29904;51.058;5.378;2023-06-14T04:20:06;9.60;;;6.18;;
44228;SDS011;29904;51.058;5.378;2023-06-14T04:22:34;9.30;;;6.43;;
44228;SDS011;29904;51.058;5.378;2023-06-14T04:25:02;7.70;;;6.10;;
44228;SDS011;29904;51.058;5.378;2023-06-14T04:27:31;9.27;;;6.30;;
44228;SDS011;29904;51.058;5.378;2023-06-14T04:29:59;8.63;;;6.28;;
44228;SDS011;29904;51.058;5.378;2023-06-14T04:32:27;9.38;;;6.43;;
44228;SDS011;29904;51.058;5.378;2023-06-14T04:34:57;10.00;;;6.22;;
44228;SDS011;29904;51.058;5.378;2023-06-14T04:37:24;8.85;;;6.30;;
44228;SDS011;29904;51.058;5.378;2023-06-14T04:39:53;8.18;;;6.13;;
44228;SDS011;29904;51.058;5.378;2023-06-14T04:42:20;9.77;;;6.70;;
44228;SDS011;29904;51.058;5.378;2023-06-14T04:44:50;7.73;;;6.17;;
44228;SDS011;29904;51.058;5.378;2023-06-14T04:47:17;7.65;;;6.10;;
44228;SDS011;29904;51.058;5.378;2023-06-14T04:49:46;8.80;;;6.47;;
44228;SDS011;29904;51.058;5.378;2023-06-14T04:52:13;8.15;;;6.25;;
44228;SDS011;29904;51.058;5.378;2023-06-14T04:54:39;8.55;;;6.15;;
44228;SDS011;29904;51.058;5.378;2023-06-14T04:57:08;8.88;;;6.40;;
44228;SDS011;29904;51.058;5.378;2023-06-14T04:59:39;10.20;;;6.35;;
44228;SDS011;29904;51.058;5.378;2023-06-14T05:02:05;8.17;;;6.03;;
44228;SDS011;29904;51.058;5.378;2023-06-14T05:04:32;9.00;;;6.55;;
44228;SDS011;29904;51.058;5.378;2023-06-14T05:06:58;9.38;;;6.28;;
44228;SDS011;29904;51.058;5.378;2023-06-14T05:09:24;9.30;;;6.20;;
44228;SDS011;29904;51.058;5.378;2023-06-14T05:11:52;8.90;;;5.93;;
44228;SDS011;29904;51.058;5.378;2023-06-14T05:14:17;8.95;;;6.47;;
44228;SDS011;29904;51.058;5.378;2023-06-14T05:16:43;8.88;;;6.25;;
44228;SDS011;29904;51.058;5.378;2023-06-14T05:19:09;8.57;;;6.33;;
44228;SDS011;29904;51.058;5.378;2023-06-14T05:21:37;8.50;;;6.35;;
44228;SDS011;29904;51.058;5.378;2023-06-14T05:24:04;9.73;;;6.45;;
44228;SDS011;29904;51.058;5.378;2023-06-14T05:26:29;8.35;;;5.93;;
44228;SDS011;29904;51.058;5.378;2023-06-14T05:28:56;9.10;;;6.20;;
44228;SDS011;29904;51.058;5.378;2023-06-14T05:31:23;9.10;;;6.20;;
44228;SDS011;29904;51.058;5.378;2023-06-14T05:33:51;9.27;;;6.50;;
44228;SDS011;29904;51.058;5.378;2023-06-14T05:36:17;9.57;;;6.13;;
44228;SDS011;29904;51.058;5.378;2023-06-14T05:38:44;8.65;;;6.20;;
44228;SDS011;29904;51.058;5.378;2023-06-14T05:41:11;8.43;;;6.07;;
44228;SDS011;29904;51.058;5.378;2023-06-14T05:43:38;9.73;;;6.30;;
44228;SDS011;29904;51.058;5.378;2023-06-14T05:46:04;9.30;;;6.20;;
44228;SDS011;29904;51.058;5.378;2023-06-14T05:48:30;9.98;;;5.95;;
44228;SDS011;29904;51.058;5.378;2023-06-14T05:50:56;8.65;;;6.00;;
44228;SDS011;29904;51.058;5.378;2023-06-14T05:53:22;10.30;;;5.70;;
44228;SDS011;29904;51.058;5.378;2023-06-14T05:55:48;8.23;;;6.10;;
44228;SDS011;29904;51.058;5.378;2023-06-14T05:58:16;9.82;;;6.20;;
44228;SDS011;29904;51.058;5.378;2023-06-14T06:00:42;8.93;;;5.78;;
44228;SDS011;29904;51.058;5.378;2023-06-14T06:03:08;10.23;;;5.70;;
44228;SDS011;29904;51.058;5.378;2023-06-14T06:05:36;8.25;;;5.22;;
44228;SDS011;29904;51.058;5.378;2023-06-14T06:08:02;10.13;;;6.28;;
44228;SDS011;29904;51.058;5.378;2023-06-14T06:10:27;8.60;;;5.70;;
44228;SDS011;29904;51.058;5.378;2023-06-14T06:12:53;9.65;;;5.50;;
44228;SDS011;29904;51.058;5.378;2023-06-14T06:15:19;7.70;;;5.80;;
44228;SDS011;29904;51.058;5.378;2023-06-14T06:17:45;10.90;;;5.80;;
44228;SDS011;29904;51.058;5.378;2023-06-14T06:20:11;8.30;;;5.50;;
44228;SDS011;29904;51.058;5.378;2023-06-14T06:22:38;8.50;;;5.75;;
44228;SDS011;29904;51.058;5.378;2023-06-14T06:25:04;10.45;;;5.72;;
44228;SDS011;29904;51.058;5.378;2023-06-14T06:27:31;8.85;;;5.53;;
44228;SDS011;29904;51.058;5.378;2023-06-14T06:29:59;9.52;;;5.53;;
44228;SDS011;29904;51.058;5.378;2023-06-14T06:32:24;8.93;;;5.30;;
44228;SDS011;29904;51.058;5.378;2023-06-14T06:34:50;8.50;;;5.40;;
44228;SDS011;29904;51.058;5.378;2023-06-14T06:37:19;8.73;;;5.25;;
44228;SDS011;29904;51.058;5.378;2023-06-14T06:39:46;8.40;;;5.38;;
44228;SDS011;29904;51.058;5.378;2023-06-14T06:42:12;8.55;;;4.93;;
44228;SDS011;29904;51.058;5.378;2023-06-14T06:44:38;9.90;;;5.50;;
44228;SDS011;29904;51.058;5.378;2023-06-14T06:47:06;9.40;;;5.45;;
44228;SDS011;29904;51.058;5.378;2023-06-14T06:49:31;8.27;;;5.50;;
44228;SDS011;29904;51.058;5.378;2023-06-14T06:52:04;9.00;;;5.15;;
44228;SDS011;29904;51.058;5.378;2023-06-14T06:54:31;9.70;;;5.65;;
44228;SDS011;29904;51.058;5.378;2023-06-14T06:56:57;9.63;;;5.47;;
44228;SDS011;29904;51.058;5.378;2023-06-14T06:59:23;7.32;;;5.07;;
44228;SDS011;29904;51.058;5.378;2023-06-14T07:01:49;6.70;;;5.22;;
44228;SDS011;29904;51.058;5.378;2023-06-14T07:04:17;11.23;;;5.50;;
44228;SDS011;29904;51.058;5.378;2023-06-14T07:06:43;9.07;;;5.43;;
44228;SDS011;29904;51.058;5.378;2023-06-14T07:09:09;7.40;;;5.10;;
44228;SDS011;29904;51.058;5.378;2023-06-14T07:11:39;8.05;;;5.22;;
44228;SDS011;29904;51.058;5.378;2023-06-14T07:14:05;7.70;;;4.88;;
44228;SDS011;29904;51.058;5.378;2023-06-14T07:16:31;7.37;;;5.00;;
44228;SDS011;29904;51.058;5.378;2023-06-14T07:18:58;7.82;;;5.00;;
44228;SDS011;29904;51.058;5.378;2023-06-14T07:21:25;5.97;;;4.60;;
44228;SDS011;29904;51.058;5.378;2023-06-14T07:23:53;6.25;;;4.55;;
44228;SDS011;29904;51.058;5.378;2023-06-14T07:26:19;8.57;;;4.35;;
44228;SDS011;29904;51.058;5.378;2023-06-14T07:28:46;6.25;;;4.55;;
44228;SDS011;29904;51.058;5.378;2023-06-14T07:31:15;8.18;;;4.15;;
44228;SDS011;29904;51.058;5.378;2023-06-14T07:33:41;8.98;;;4.60;;
44228;SDS011;29904;51.058;5.378;2023-06-14T07:36:07;5.88;;;4.28;;
44228;SDS011;29904;51.058;5.378;2023-06-14T07:38:33;6.43;;;4.35;;
44228;SDS011;29904;51.058;5.378;2023-06-14T07:41:03;7.03;;;3.80;;
44228;SDS011;29904;51.058;5.378;2023-06-14T07:43:29;8.57;;;4.00;;
44228;SDS011;29904;51.058;5.378;2023-06-14T07:45:54;5.97;;;3.85;;
44228;SDS011;29904;51.058;5.378;2023-06-14T07:48:20;5.83;;;3.93;;
44228;SDS011;29904;51.058;5.378;2023-06-14T07:50:46;5.50;;;3.47;;
44228;SDS011;29904;51.058;5.378;2023-06-14T07:53:12;6.78;;;3.90;;
44228;SDS011;29904;51.058;5.378;2023-06-14T07:55:38;10.23;;;3.67;;
44228;SDS011;29904;51.058;5.378;2023-06-14T07:58:04;8.15;;;4.15;;
44228;SDS011;29904;51.058;5.378;2023-06-14T08:00:33;6.33;;;3.97;;
44228;SDS011;29904;51.058;5.378;2023-06-14T08:02:59;7.40;;;3.53;;
44228;SDS011;29904;51.058;5.378;2023-06-14T08:05:25;6.30;;;3.50;;
44228;SDS011;29904;51.058;5.378;2023-06-14T08:07:52;9.20;;;3.63;;
44228;SDS011;29904;51.058;5.378;2023-06-14T08:10:18;5.15;;;3.65;;
44228;SDS011;29904;51.058;5.378;2023-06-14T08:12:48;7.68;;;3.60;;
44228;SDS011;29904;51.058;5.378;2023-06-14T08:15:15;6.25;;;3.20;;
44228;SDS011;29904;51.058;5.378;2023-06-14T08:17:45;6.57;;;3.50;;
44228;SDS011;29904;51.058;5.378;2023-06-14T08:20:11;5.75;;;3.05;;
44228;SDS011;29904;51.058;5.378;2023-06-14T08:22:38;6.18;;;3.50;;
44228;SDS011;29904;51.058;5.378;2023-06-14T08:25:07;9.07;;;3.40;;
44228;SDS011;29904;51.058;5.378;2023-06-14T08:27:33;5.25;;;2.95;;
44228;SDS011;29904;51.058;5.378;2023-06-14T08:30:04;3.78;;;3.00;;
44228;SDS011;29904;51.058;5.378;2023-06-14T08:32:30;4.82;;;3.10;;
44228;SDS011;29904;51.058;5.378;2023-06-14T08:34:56;6.20;;;3.37;;
44228;SDS011;29904;51.058;5.378;2023-06-14T08:37:24;6.75;;;3.17;;
44228;SDS011;29904;51.058;5.378;2023-06-14T08:39:51;6.97;;;3.28;;
44228;SDS011;29904;51.058;5.378;2023-06-14T08:42:17;7.35;;;2.92;;
44228;SDS011;29904;51.058;5.378;2023-06-14T08:44:46;4.70;;;2.88;;
44228;SDS011;29904;51.058;5.378;2023-06-14T08:47:12;5.57;;;2.70;;
44228;SDS011;29904;51.058;5.378;2023-06-14T08:49:40;5.10;;;3.13;;
44228;SDS011;29904;51.058;5.378;2023-06-14T08:52:10;5.47;;;2.58;;
44228;SDS011;29904;51.058;5.378;2023-06-14T08:54:37;3.35;;;2.40;;
44228;SDS011;29904;51.058;5.378;2023-06-14T08:57:10;4.47;;;2.72;;
44228;SDS011;29904;51.058;5.378;2023-06-14T08:59:38;6.13;;;2.75;;
44228;SDS011;29904;51.058;5.378;2023-06-14T09:02:14;4.80;;;2.67;;
44228;SDS011;29904;51.058;5.378;2023-06-14T09:04:43;4.28;;;2.63;;
44228;SDS011;29904;51.058;5.378;2023-06-14T09:07:09;5.57;;;2.80;;
44228;SDS011;29904;51.058;5.378;2023-06-14T09:09:38;7.78;;;2.58;;
44228;SDS011;29904;51.058;5.378;2023-06-14T09:12:10;3.65;;;2.45;;
44228;SDS011;29904;51.058;5.378;2023-06-14T09:14:37;4.88;;;2.50;;
44228;SDS011;29904;51.058;5.378;2023-06-14T09:17:05;4.32;;;2.33;;
44228;SDS011;29904;51.058;5.378;2023-06-14T09:19:31;5.53;;;2.70;;
44228;SDS011;29904;51.058;5.378;2023-06-14T09:21:56;3.93;;;2.30;;
44228;SDS011;29904;51.058;5.378;2023-06-14T09:24:24;5.95;;;2.40;;
44228;SDS011;29904;51.058;5.378;2023-06-14T09:26:53;4.30;;;2.13;;
44228;SDS011;29904;51.058;5.378;2023-06-14T09:29:18;7.25;;;2.20;;
44228;SDS011;29904;51.058;5.378;2023-06-14T09:31:47;7.55;;;2.30;;
44228;SDS011;29904;51.058;5.378;2023-06-14T09:34:13;4.63;;;2.20;;
44228;SDS011;29904;51.058;5.378;2023-06-14T09:36:43;2.83;;;1.90;;
44228;SDS011;29904;51.058;5.378;2023-06-14T09:39:10;4.53;;;2.08;;
44228;SDS011;29904;51.058;5.378;2023-06-14T09:41:42;3.50;;;2.20;;
44228;SDS011;29904;51.058;5.378;2023-06-14T09:44:09;3.53;;;2.03;;
44228;SDS011;29904;51.058;5.378;2023-06-14T09:46:39;3.40;;;2.30;;
44228;SDS011;29904;51.058;5.378;2023-06-14T09:49:05;3.47;;;1.83;;
44228;SDS011;29904;51.058;5.378;2023-06-14T09:51:31;2.65;;;1.92;;
44228;SDS011;29904;51.058;5.378;2023-06-14T09:54:01;5.22;;;2.35;;
44228;SDS011;29904;51.058;5.378;2023-06-14T09:56:30;3.17;;;2.30;;
44228;SDS011;29904;51.058;5.378;2023-06-14T09:58:59;3.50;;;2.00;;
44228;SDS011;29904;51.058;5.378;2023-06-14T10:01:30;3.00;;;1.70;;
44228;SDS011;29904;51.058;5.378;2023-06-14T10:04:04;2.83;;;1.70;;
44228;SDS011;29904;51.058;5.378;2023-06-14T10:06:32;3.42;;;1.40;;
44228;SDS011;29904;51.058;5.378;2023-06-14T10:09:09;1.90;;;1.30;;
44228;SDS011;29904;51.058;5.378;2023-06-14T10:11:36;4.20;;;1.60;;
44228;SDS011;29904;51.058;5.378;2023-06-14T10:14:08;2.40;;;1.50;;
44228;SDS011;29904;51.058;5.378;2023-06-14T10:16:44;3.33;;;1.57;;
44228;SDS011;29904;51.058;5.378;2023-06-14T10:19:42;4.38;;;1.63;;
44228;SDS011;29904;51.058;5.378;2023-06-14T10:22:24;2.00;;;1.60;;
44228;SDS011;29904;51.058;5.378;2023-06-14T10:24:55;2.70;;;1.65;;
44228;SDS011;29904;51.058;5.378;2023-06-14T10:27:23;2.40;;;1.40;;
44228;SDS011;29904;51.058;5.378;2023-06-14T10:32:18;2.10;;;1.30;;
44228;SDS011;29904;51.058;5.378;2023-06-14T10:34:49;2.70;;;1.10;;
44228;SDS011;29904;51.058;5.378;2023-06-14T10:37:20;2.03;;;0.90;;
44228;SDS011;29904;51.058;5.378;2023-06-14T10:39:46;1.65;;;1.10;;
44228;SDS011;29904;51.058;5.378;2023-06-14T10:42:15;2.50;;;1.00;;
44228;SDS011;29904;51.058;5.378;2023-06-14T10:44:42;1.80;;;1.00;;
44228;SDS011;29904;51.058;5.378;2023-06-14T10:47:09;2.43;;;1.13;;
44228;SDS011;29904;51.058;5.378;2023-06-14T10:49:51;1.65;;;1.00;;
44228;SDS011;29904;51.058;5.378;2023-06-14T10:52:24;1.70;;;0.90;;
44228;SDS011;29904;51.058;5.378;2023-06-14T10:54:58;2.30;;;1.00;;
44228;SDS011;29904;51.058;5.378;2023-06-14T10:57:29;2.25;;;1.00;;
44228;SDS011;29904;51.058;5.378;2023-06-14T11:00:00;2.03;;;0.90;;
44228;SDS011;29904;51.058;5.378;2023-06-14T11:02:48;2.77;;;1.00;;
44228;SDS011;29904;51.058;5.378;2023-06-14T11:05:24;2.55;;;0.90;;
44228;SDS011;29904;51.058;5.378;2023-06-14T11:10:57;1.20;;;0.70;;
44228;SDS011;29904;51.058;5.378;2023-06-14T11:13:25;1.13;;;0.63;;
44228;SDS011;29904;51.058;5.378;2023-06-14T11:15:52;2.57;;;0.87;;
44228;SDS011;29904;51.058;5.378;2023-06-14T11:18:19;2.25;;;0.80;;
44228;SDS011;29904;51.058;5.378;2023-06-14T11:20:49;3.85;;;0.90;;
44228;SDS011;29904;51.058;5.378;2023-06-14T11:23:15;1.90;;;0.90;;
44228;SDS011;29904;51.058;5.378;2023-06-14T11:25:40;2.60;;;0.85;;
44228;SDS011;29904;51.058;5.378;2023-06-14T11:28:08;2.25;;;0.90;;
44228;SDS011;29904;51.058;5.378;2023-06-14T11:30:34;2.13;;;0.90;;
44228;SDS011;29904;51.058;5.378;2023-06-14T11:32:59;2.38;;;0.90;;
44228;SDS011;29904;51.058;5.378;2023-06-14T11:35:25;1.43;;;0.90;;
44228;SDS011;29904;51.058;5.378;2023-06-14T11:37:55;2.63;;;0.80;;
44228;SDS011;29904;51.058;5.378;2023-06-14T11:40:23;1.83;;;0.80;;
44228;SDS011;29904;51.058;5.378;2023-06-14T11:42:50;3.72;;;1.00;;
44228;SDS011;29904;51.058;5.378;2023-06-14T11:45:22;1.60;;;1.10;;
44228;SDS011;29904;51.058;5.378;2023-06-14T11:47:50;2.35;;;1.08;;
44228;SDS011;29904;51.058;5.378;2023-06-14T11:50:16;1.40;;;0.80;;
44228;SDS011;29904;51.058;5.378;2023-06-14T11:52:42;2.97;;;1.07;;
44228;SDS011;29904;51.058;5.378;2023-06-14T11:55:08;2.40;;;1.10;;
44228;SDS011;29904;51.058;5.378;2023-06-14T11:57:34;2.83;;;1.10;;
44228;SDS011;29904;51.058;5.378;2023-06-14T12:00:04;2.55;;;1.25;;
44228;SDS011;29904;51.058;5.378;2023-06-14T12:02:37;2.92;;;1.10;;
44228;SDS011;29904;51.058;5.378;2023-06-14T12:05:04;1.92;;;0.98;;
44228;SDS011;29904;51.058;5.378;2023-06-14T12:07:35;3.13;;;1.10;;
44228;SDS011;29904;51.058;5.378;2023-06-14T12:12:34;3.08;;;1.10;;
44228;SDS011;29904;51.058;5.378;2023-06-14T12:15:05;2.45;;;1.02;;
44228;SDS011;29904;51.058;5.378;2023-06-14T12:17:36;3.83;;;1.10;;
44228;SDS011;29904;51.058;5.378;2023-06-14T12:20:11;2.50;;;1.10;;
44228;SDS011;29904;51.058;5.378;2023-06-14T12:22:47;3.17;;;1.17;;
44228;SDS011;29904;51.058;5.378;2023-06-14T12:25:28;3.72;;;1.40;;
44228;SDS011;29904;51.058;5.378;2023-06-14T12:27:58;2.25;;;1.23;;
44228;SDS011;29904;51.058;5.378;2023-06-14T12:30:36;2.05;;;1.10;;
44228;SDS011;29904;51.058;5.378;2023-06-14T12:33:03;2.28;;;1.10;;
44228;SDS011;29904;51.058;5.378;2023-06-14T12:35:31;2.50;;;1.10;;
44228;SDS011;29904;51.058;5.378;2023-06-14T12:37:57;1.98;;;1.20;;
44228;SDS011;29904;51.058;5.378;2023-06-14T12:40:23;3.45;;;1.42;;
44228;SDS011;29904;51.058;5.378;2023-06-14T12:42:51;2.97;;;1.23;;
44228;SDS011;29904;51.058;5.378;2023-06-14T12:45:17;3.83;;;1.13;;
44228;SDS011;29904;51.058;5.378;2023-06-14T12:47:43;2.53;;;1.20;;
44228;SDS011;29904;51.058;5.378;2023-06-14T12:50:10;2.80;;;1.15;;
44228;SDS011;29904;51.058;5.378;2023-06-14T12:52:36;2.40;;;1.08;;
44228;SDS011;29904;51.058;5.378;2023-06-14T12:55:03;2.33;;;1.10;;
44228;SDS011;29904;51.058;5.378;2023-06-14T12:57:29;2.70;;;1.00;;
44228;SDS011;29904;51.058;5.378;2023-06-14T12:59:55;4.10;;;1.30;;
44228;SDS011;29904;51.058;5.378;2023-06-14T13:02:21;1.42;;;1.02;;
44228;SDS011;29904;51.058;5.378;2023-06-14T13:04:48;3.28;;;1.17;;
44228;SDS011;29904;51.058;5.378;2023-06-14T13:07:14;2.20;;;1.15;;
44228;SDS011;29904;51.058;5.378;2023-06-14T13:09:40;2.70;;;1.00;;
44228;SDS011;29904;51.058;5.378;2023-06-14T13:12:06;1.75;;;1.05;;
44228;SDS011;29904;51.058;5.378;2023-06-14T13:14:33;1.97;;;1.00;;
44228;SDS011;29904;51.058;5.378;2023-06-14T13:16:59;1.73;;;0.98;;
44228;SDS011;29904;51.058;5.378;2023-06-14T13:19:27;1.33;;;0.93;;
44228;SDS011;29904;51.058;5.378;2023-06-14T13:21:55;2.58;;;1.08;;
44228;SDS011;29904;51.058;5.378;2023-06-14T13:24:20;2.13;;;1.00;;
44228;SDS011;29904;51.058;5.378;2023-06-14T13:26:46;1.40;;;1.00;;
44228;SDS011;29904;51.058;5.378;2023-06-14T13:29:14;4.88;;;1.10;;
44228;SDS011;29904;51.058;5.378;2023-06-14T13:31:39;2.57;;;0.93;;
44228;SDS011;29904;51.058;5.378;2023-06-14T13:34:05;2.65;;;0.90;;
44228;SDS011;29904;51.058;5.378;2023-06-14T13:36:31;1.10;;;0.80;;
44228;SDS011;29904;51.058;5.378;2023-06-14T13:38:59;3.08;;;1.08;;
44228;SDS011;29904;51.058;5.378;2023-06-14T13:41:26;4.00;;;1.10;;
44228;SDS011;29904;51.058;5.378;2023-06-14T13:43:59;2.00;;;0.90;;
44228;SDS011;29904;51.058;5.378;2023-06-14T13:46:25;1.83;;;1.00;;
44228;SDS011;29904;51.058;5.378;2023-06-14T13:48:51;2.33;;;1.02;;
44228;SDS011;29904;51.058;5.378;2023-06-14T13:51:17;1.77;;;1.00;;
44228;SDS011;29904;51.058;5.378;2023-06-14T13:53:50;1.70;;;1.00;;
44228;SDS011;29904;51.058;5.378;2023-06-14T13:56:18;2.65;;;0.98;;
44228;SDS011;29904;51.058;5.378;2023-06-14T13:58:44;1.70;;;1.00;;
44228;SDS011;29904;51.058;5.378;2023-06-14T14:01:09;1.50;;;1.00;;
44228;SDS011;29904;51.058;5.378;2023-06-14T14:03:36;1.85;;;0.90;;
44228;SDS011;29904;51.058;5.378;2023-06-14T14:06:04;2.95;;;1.00;;
44228;SDS011;29904;51.058;5.378;2023-06-14T14:08:32;4.20;;;1.10;;
44228;SDS011;29904;51.058;5.378;2023-06-14T14:10:58;2.63;;;0.88;;
44228;SDS011;29904;51.058;5.378;2023-06-14T14:13:24;2.40;;;1.10;;
44228;SDS011;29904;51.058;5.378;2023-06-14T14:15:50;1.45;;;0.82;;
44228;SDS011;29904;51.058;5.378;2023-06-14T14:18:15;1.67;;;0.88;;
44228;SDS011;29904;51.058;5.378;2023-06-14T14:20:42;2.55;;;1.02;;
44228;SDS011;29904;51.058;5.378;2023-06-14T14:23:07;3.30;;;0.90;;
44228;SDS011;29904;51.058;5.378;2023-06-14T14:25:33;1.00;;;0.90;;
44228;SDS011;29904;51.058;5.378;2023-06-14T14:27:59;3.05;;;0.85;;
44228;SDS011;29904;51.058;5.378;2023-06-14T14:30:25;2.07;;;0.80;;
44228;SDS011;29904;51.058;5.378;2023-06-14T14:32:50;1.83;;;0.88;;
44228;SDS011;29904;51.058;5.378;2023-06-14T14:35:20;1.33;;;0.82;;
44228;SDS011;29904;51.058;5.378;2023-06-14T14:37:48;2.25;;;1.00;;
44228;SDS011;29904;51.058;5.378;2023-06-14T14:40:14;4.18;;;0.80;;
44228;SDS011;29904;51.058;5.378;2023-06-14T14:42:40;1.60;;;0.90;;
44228;SDS011;29904;51.058;5.378;2023-06-14T14:45:06;1.85;;;0.70;;
44228;SDS011;29904;51.058;5.378;2023-06-14T14:47:32;0.93;;;0.60;;
44228;SDS011;29904;51.058;5.378;2023-06-14T14:49:58;4.63;;;0.90;;
44228;SDS011;29904;51.058;5.378;2023-06-14T14:52:23;1.43;;;0.70;;
44228;SDS011;29904;51.058;5.378;2023-06-14T14:54:50;1.93;;;0.67;;
44228;SDS011;29904;51.058;5.378;2023-06-14T14:57:18;3.38;;;0.60;;
44228;SDS011;29904;51.058;5.378;2023-06-14T14:59:44;2.78;;;0.70;;
44228;SDS011;29904;51.058;5.378;2023-06-14T15:02:10;2.50;;;0.70;;
44228;SDS011;29904;51.058;5.378;2023-06-14T15:04:36;2.10;;;0.60;;
44228;SDS011;29904;51.058;5.378;2023-06-14T15:07:02;1.55;;;0.65;;